Weather at San Francisco International Airport

Public forecast

Using degrees Fahrenheit for public forecast. Weather courtesy of forecast.io.

Current aviation weather report (METAR) for San Francisco International Airport

Retrieved 2021/05/11 19:56 UTC (20 minutes ago):

KSFO 111956Z 31011KT 10SM CLR 21/10 A2991 RMK AO2 SLP129 T02110100

Aviation forecast (TAF) for San Francisco International Airport

Retrieved 2021/05/11 18:24 UTC (2 hours ago):

TAF KSFO 111721Z 1118/1224 35008KT P6SM SKC FM112000 31008KT P6SM SKC FM112200 30015G21KT P6SM SKC FM120500 30011KT P6SM SKC FM120700 VRB06KT P6SM FEW007 FM121800 VRB04KT P6SM SKC FM122000 29014KT P6SM SKC